METAR Data
IDs: Format: Raw Decoded Include TAF

Data at: 0136 UTC 10 Dec 2022

K4S2 100115Z AUTO 04004KT 5SM -SN BKN010 BKN016 OVC021 00/00 A2972 RMK AO2
K4S2 100055Z AUTO 06012G16KT 7SM -SN SCT010 SCT014 OVC021 01/00 A2973 RMK AO2
K4S2 100035Z AUTO 02003KT 7SM -RA SCT012 BKN020 OVC026 00/00 A2974 RMK AO2
K4S2 100015Z AUTO 33005KT 7SM -SN SCT003 BKN026 OVC035 00/00 A2977 RMK AO2
K4S2 092355Z AUTO 29003KT 3SM -RA SCT003 BKN010 OVC036 00/00 A2978 RMK AO2
K4S2 092335Z AUTO 00000KT 4SM BR SCT030 OVC040 00/00 A2979 RMK AO2
K4S2 092315Z AUTO 00000KT 4SM BR SCT003 SCT014 OVC044 00/00 A2980 RMK AO2
K4S2 092255Z AUTO 00000KT 4SM BR OVC003 00/00 A2981 RMK AO2
K4S2 092235Z AUTO 00000KT 5SM BR BKN003 BKN020 OVC036 00/00 A2983 RMK AO2
K4S2 092215Z AUTO 00000KT 7SM BKN003 BKN020 OVC038 00/00 A2983 RMK AO2
K4S2 092115Z AUTO 35003KT 7SM BKN005 OVC018 01/00 A2987 RMK AO2
K4S2 092055Z AUTO 00000KT 10SM SCT005 BKN020 OVC055 01/00 A2989 RMK AO2
K4S2 092035Z AUTO 00000KT 10SM SCT005 BKN021 OVC055 00/00 A2990 RMK AO2
K4S2 092015Z AUTO 00000KT 10SM SCT005 BKN049 OVC055 00/00 A2991 RMK AO2
K4S2 091955Z AUTO 00000KT 7SM BKN005 BKN020 OVC055 00/00 A2993 RMK AO2
K4S2 091935Z AUTO 00000KT 5SM BR OVC005 00/00 A2994 RMK AO2
K4S2 091915Z AUTO 00000KT 4SM BR OVC005 00/00 A2995 RMK AO2
K4S2 091755Z AUTO 00000KT 7SM OVC003 00/M01 A2999 RMK AO2
K4S2 091735Z AUTO 00000KT 7SM OVC003 00/M01 A2999 RMK AO2
K4S2 091615Z AUTO 00000KT 3SM -SN BKN003 OVC009 M01/M01 A2999 RMK AO2 P0001
K4S2 091535Z AUTO 00000KT 4SM -SN OVC007 M02/M02 A2999 RMK AO2
K4S2 091515Z AUTO 00000KT 3SM -SN OVC007 M02/M02 A3000 RMK AO2
K4S2 091455Z AUTO 00000KT 4SM -SN SCT004 BKN008 OVC024 M02/M02 A3000 RMK AO2 P0001
K4S2 091435Z AUTO 00000KT 5SM -SN BKN004 OVC007 M02/M02 A3000 RMK AO2 P0001
K4S2 091415Z AUTO 00000KT 2 1/2SM -SN OVC004 M01/M02 A3000 RMK AO2
K4S2 091355Z AUTO 00000KT 7SM -SN OVC004 M02/M02 A3000 RMK AO2
K4S2 091335Z AUTO 00000KT 10SM OVC004 M02/M02 A2999 RMK AO2
K4S2 091315Z AUTO 00000KT 7SM OVC004 M02/M02 A2999 RMK AO2
K4S2 091255Z AUTO 00000KT 7SM -SN OVC004 M02/M02 A2999 RMK AO2
K4S2 091235Z AUTO 00000KT 10SM OVC004 M02/M02 A3000 RMK AO2
K4S2 091215Z AUTO 00000KT 10SM OVC006 M03/M03 A2999 RMK AO2
K4S2 091135Z AUTO 00000KT 10SM SCT006 SCT035 BKN048 M03/M04 A2999 RMK AO2
K4S2 091115Z AUTO 00000KT 10SM SCT004 BKN035 OVC048 M02/M03 A3000 RMK AO2
K4S2 091055Z AUTO 20003KT 10SM BKN013 OVC055 M02/M03 A3001 RMK AO2
K4S2 091035Z AUTO 20004KT 10SM OVC011 M02/M03 A3001 RMK AO2
K4S2 091015Z AUTO 00000KT 10SM OVC011 M03/M03 A3000 RMK AO2
K4S2 090955Z AUTO 20004KT 10SM OVC007 M03/M03 A3000 RMK AO2
K4S2 090935Z AUTO 00000KT 10SM OVC005 M03/M03 A3000 RMK AO2
K4S2 090915Z AUTO 19004KT 10SM BKN007 BKN016 OVC047 M02/M03 A3000 RMK AO2
K4S2 090855Z AUTO 18004KT 10SM SCT009 BKN018 OVC047 M02/M02 A3001 RMK AO2
K4S2 090835Z AUTO 00000KT 10SM -SN OVC018 M02/M02 A3000 RMK AO2
K4S2 090815Z AUTO 00000KT 3SM -SN OVC018 M02/M03 A3000 RMK AO2
K4S2 090755Z AUTO 19003KT 3SM -SN SCT003 BKN018 OVC028 M03/M03 A3000 RMK AO2
K4S2 090735Z AUTO 20003KT 4SM -SN BKN003 BKN014 OVC027 M03/M03 A3001 RMK AO2
K4S2 090715Z AUTO 20003KT 5SM BR SCT005 OVC024 M02/M02 A3000 RMK AO2
K4S2 090655Z AUTO 00000KT 4SM -SN OVC005 M02/M03 A3000 RMK AO2
K4S2 090635Z AUTO 19003KT 2SM -SN OVC005 M03/M03 A3000 RMK AO2 VIS 1 3/4V4
K4S2 090615Z AUTO 19003KT 10SM OVC005 M03/M03 A2999 RMK AO2
K4S2 090555Z AUTO 00000KT 10SM OVC005 M03/M03 A2999 RMK AO2
K4S2 090535Z AUTO 00000KT 10SM OVC005 M03/M03 A2999 RMK AO2
K4S2 090515Z AUTO 00000KT 10SM OVC007 M03/M03 A2999 RMK AO2
K4S2 090455Z AUTO 00000KT 10SM OVC007 M03/M03 A2999 RMK AO2
K4S2 090435Z AUTO 00000KT 5SM BR BKN007 OVC012 M03/M04 A2999 RMK AO2
K4S2 090415Z AUTO 00000KT 7SM BKN007 OVC012 M03/M03 A2999 RMK AO2
K4S2 090355Z AUTO 00000KT 1SM BR OVC005 M03/M03 A2999 RMK AO2
K4S2 090335Z AUTO 00000KT 1/2SM FZFG BKN003 OVC014 M03/M03 A2999 RMK AO2
K4S2 090315Z AUTO 00000KT 1/2SM FZFG SCT001 OVC015 M02/M02 A2998 RMK AO2
K4S2 090255Z AUTO 19003KT 7SM OVC017 M02/M02 A2998 RMK AO2
K4S2 090235Z AUTO 00000KT 7SM OVC019 M02/M02 A2999 RMK AO2
K4S2 090215Z AUTO 00000KT 7SM OVC019 M01/M02 A2999 RMK AO2
K4S2 090155Z AUTO 00000KT 5SM BR OVC021 M01/M02 A2999 RMK AO2
K4S2 090135Z AUTO 00000KT 4SM -SN OVC025 M01/M02 A2999 RMK AO2
K4S2 090115Z AUTO 00000KT 7SM BKN027 BKN033 OVC044 M01/M02 A2999 RMK AO2
K4S2 090055Z AUTO 00000KT 4SM -SN SCT027 BKN046 OVC055 M01/M02 A3000 RMK AO2
K4S2 090035Z AUTO 00000KT 4SM -SN BKN032 OVC043 M01/M01 A3000 RMK AO2
K4S2 090015Z AUTO 20003KT 7SM -RA BKN032 BKN043 OVC050 M01/M02 A3000 RMK AO2
K4S2 082355Z AUTO 00000KT 3SM -SN BKN032 BKN038 OVC046 M01/M01 A2999 RMK AO2 P0001
K4S2 082335Z AUTO 00000KT 1 3/4SM -SN SCT022 BKN029 OVC036 M01/M01 A3000 RMK AO2 P0001
K4S2 082315Z AUTO 00000KT 1 3/4SM -SN SCT004 BKN028 OVC036 M01/M02 A3000 RMK AO2
K4S2 082255Z AUTO 00000KT 1 1/2SM -SN SCT004 BKN019 OVC027 M01/M02 A3000 RMK AO2 P0002
K4S2 082235Z AUTO 00000KT 1SM -SN BKN004 OVC017 M01/M02 A3001 RMK AO2 P0002
K4S2 082215Z AUTO 00000KT 3/4SM -SN BKN004 OVC015 M01/M02 A3001 RMK AO2 P0001
K4S2 082155Z AUTO 00000KT 3/4SM -SN OVC004 M01/M02 A3001 RMK AO2 P0004
K4S2 082055Z AUTO 00000KT 1/2SM SN BKN004 OVC013 M01/M02 A3004 RMK AO2 P0004
K4S2 082035Z AUTO 00000KT 1/2SM SN OVC013 M01/M02 A3005 RMK AO2 P0002
K4S2 082015Z AUTO 00000KT 1/2SM SN OVC011 M02/M02 A3005 RMK AO2 P0001
K4S2 081935Z AUTO 00000KT 1/2SM SN BKN004 OVC013 M02/M02 A3007 RMK AO2 P0002
K4S2 081915Z AUTO 00000KT 1SM -SN BKN004 BKN008 OVC016 M02/M02 A3008 RMK AO2
K4S2 081855Z AUTO 00000KT 3/4SM -SN OVC016 M02/M02 A3009 RMK AO2 P0003
K4S2 081835Z AUTO 00000KT 3/4SM SN OVC016 M02/M02 A3009 RMK AO2 P0002
K4S2 081815Z AUTO 00000KT 3/4SM -SN OVC018 M02/M02 A3010 RMK AO2 P0001
K4S2 081755Z AUTO 00000KT 3/4SM -SN OVC018 M02/M02 A3010 RMK AO2 P0003
K4S2 081735Z AUTO 00000KT 3/4SM -SN OVC016 M02/M02 A3010 RMK AO2 P0002
K4S2 081715Z AUTO 00000KT 1 1/4SM -SN OVC017 M02/M03 A3010 RMK AO2 P0002
K4S2 081655Z AUTO 00000KT 3/4SM -SN BKN009 OVC015 M02/M03 A3011 RMK AO2 P0004
K4S2 081635Z AUTO 00000KT 1/2SM SN OVC007 M02/M03 A3011 RMK AO2 P0001
K4S2 081615Z AUTO 00000KT 1/4SM +SN OVC007 M02/M03 A3011 RMK AO2
K4S2 081555Z AUTO 00000KT 3/4SM -SN OVC012 M02/M03 A3011 RMK AO2 P0005
K4S2 081515Z AUTO 00000KT 3/4SM SN OVC010 M02/M03 A3012 RMK AO2 P0001
K4S2 081455Z AUTO 00000KT 1 1/4SM SN OVC012 M02/M03 A3012 RMK AO2 P0003
K4S2 081435Z AUTO 00000KT 1 1/4SM SN OVC012 M02/M03 A3012 RMK AO2 P0002
K4S2 081415Z AUTO 00000KT 1 3/4SM -SN OVC019 M02/M03 A3012 RMK AO2
K4S2 081355Z AUTO 00000KT 1 1/4SM -SN BKN012 OVC017 M02/M03 A3012 RMK AO2 P0003